Time;durP1;ratioP1;P1;durP2;ratioP2;P2;SDS_P1;SDS_P2;PMS_P1;PMS_P2;Temp;Humidity;BMP_temperature;BMP_pressure;BME280_temperature;BME280_humidity;BME280_pressure;Samples;Min_cycle;Max_cycle;Signal;HPM_P1;HPM_P2
2021/01/27 00:01:31;;;;;;;10.73;4.57;;;2.00;94.10;;;;;;5074739;27;20092;-83
2021/01/27 00:03:57;;;;;;;6.55;3.53;;;2.00;94.20;;;;;;5076405;27;20417;-83
2021/01/27 00:06:22;;;;;;;5.25;3.72;;;2.00;94.20;;;;;;5072509;27;20497;-81
2021/01/27 00:08:48;;;;;;;4.25;2.28;;;2.00;94.00;;;;;;5090264;28;20126;-82
2021/01/27 00:11:13;;;;;;;5.65;3.28;;;1.90;93.90;;;;;;5075451;27;20023;-83
2021/01/27 00:13:39;;;;;;;11.30;4.15;;;1.90;93.80;;;;;;5091102;28;20398;-82
2021/01/27 00:16:05;;;;;;;5.07;3.65;;;1.90;93.80;;;;;;5092323;28;20023;-83
2021/01/27 00:18:30;;;;;;;8.10;3.83;;;1.90;93.70;;;;;;5108452;28;20035;-83
2021/01/27 00:20:56;;;;;;;8.63;4.95;;;1.80;93.80;;;;;;5107582;28;20035;-82
2021/01/27 00:23:21;;;;;;;10.25;5.25;;;1.80;93.80;;;;;;5100863;28;20042;-83
2021/01/27 00:25:48;;;;;;;5.70;4.60;;;1.70;93.90;;;;;;5075830;28;20360;-84
2021/01/27 00:28:13;;;;;;;10.82;4.10;;;1.80;93.80;;;;;;5107772;28;20031;-83
2021/01/27 00:30:42;;;;;;;6.10;3.60;;;1.80;93.60;;;;;;5075912;27;20061;-83
2021/01/27 00:33:09;;;;;;;10.38;5.07;;;1.70;93.50;;;;;;5078372;27;20058;-82
2021/01/27 00:35:36;;;;;;;6.75;3.78;;;1.70;93.50;;;;;;5091406;27;20031;-83
2021/01/27 00:38:11;;;;;;;9.75;3.95;;;1.70;93.60;;;;;;5080743;27;20038;-84
2021/01/27 00:40:36;;;;;;;4.93;3.05;;;1.80;93.50;;;;;;5094647;27;20436;-83
2021/01/27 00:43:02;;;;;;;9.23;4.68;;;1.80;93.20;;;;;;5093386;27;20027;-83
2021/01/27 00:45:27;;;;;;;1.35;1.10;;;1.70;93.30;;;;;;5094786;27;20365;-83
2021/01/27 00:47:53;;;;;;;10.82;4.15;;;1.70;93.30;;;;;;5095054;27;20031;-83
2021/01/27 00:50:18;;;;;;;7.72;3.97;;;1.70;93.20;;;;;;5078849;27;20364;-82
2021/01/27 00:52:44;;;;;;;8.98;3.53;;;1.70;93.20;;;;;;5097170;27;20552;-83
2021/01/27 00:55:14;;;;;;;9.75;4.15;;;1.70;92.80;;;;;;5093817;27;20228;-83
2021/01/27 00:57:40;;;;;;;4.60;3.10;;;1.70;92.90;;;;;;5079891;27;20039;-83
2021/01/27 01:00:17;;;;;;;7.05;2.17;;;1.70;92.70;;;;;;5112517;27;20028;-83
2021/01/27 01:02:43;;;;;;;1.30;1.08;;;1.70;92.80;;;;;;5084636;27;20471;-82
2021/01/27 01:05:10;;;;;;;3.22;1.63;;;1.70;92.50;;;;;;5039141;27;20074;-83
2021/01/27 01:07:36;;;;;;;5.93;3.75;;;1.70;92.60;;;;;;5053032;27;20046;-84
2021/01/27 01:10:06;;;;;;;7.07;2.65;;;1.70;92.70;;;;;;5107946;27;20027;-83
2021/01/27 01:12:32;;;;;;;6.57;3.55;;;1.70;92.50;;;;;;5092699;27;20035;-83
2021/01/27 01:14:57;;;;;;;5.80;3.08;;;1.70;92.50;;;;;;5109574;27;20026;-83
2021/01/27 01:17:23;;;;;;;7.93;3.60;;;1.70;92.50;;;;;;5094506;27;20043;-84
2021/01/27 01:19:48;;;;;;;6.18;3.40;;;1.70;92.40;;;;;;5078518;27;20371;-83
2021/01/27 01:22:14;;;;;;;10.90;3.03;;;1.70;92.20;;;;;;5094797;27;20027;-83
2021/01/27 01:24:40;;;;;;;7.05;3.65;;;1.70;92.20;;;;;;5093408;27;20084;-83
2021/01/27 01:27:05;;;;;;;5.70;2.65;;;1.70;92.20;;;;;;5094186;27;20447;-83
2021/01/27 01:29:31;;;;;;;4.07;2.17;;;1.80;92.10;;;;;;5090924;27;20095;-82
2021/01/27 01:31:56;;;;;;;9.38;3.15;;;1.70;92.10;;;;;;5094514;27;20039;-82
2021/01/27 01:34:22;;;;;;;3.45;2.15;;;1.70;92.10;;;;;;5093796;27;20030;-83
2021/01/27 01:36:48;;;;;;;6.40;3.40;;;1.70;91.80;;;;;;5094540;27;20121;-82
2021/01/27 01:39:13;;;;;;;3.13;1.42;;;1.70;91.90;;;;;;5094715;27;20034;-83
2021/01/27 01:41:39;;;;;;;4.80;3.10;;;1.70;91.70;;;;;;5075311;27;20035;-83
2021/01/27 01:44:04;;;;;;;4.13;2.10;;;1.70;91.50;;;;;;5091127;27;20027;-83
2021/01/27 01:46:30;;;;;;;5.68;1.85;;;1.80;91.60;;;;;;5092673;27;20432;-83
2021/01/27 01:48:56;;;;;;;2.42;1.02;;;1.70;91.50;;;;;;5090106;27;20023;-80
2021/01/27 01:51:38;;;;;;;5.13;2.45;;;1.80;91.40;;;;;;5090935;27;20501;-82
2021/01/27 01:54:11;;;;;;;3.95;2.33;;;1.80;91.40;;;;;;5105938;27;20493;-83
2021/01/27 01:56:37;;;;;;;5.30;3.20;;;1.80;91.20;;;;;;5082452;27;20035;-84
2021/01/27 01:59:06;;;;;;;4.65;2.05;;;1.80;91.30;;;;;;5109147;27;20417;-84
2021/01/27 02:01:32;;;;;;;7.30;3.42;;;1.80;91.30;;;;;;5091412;27;20034;-84
2021/01/27 02:03:57;;;;;;;5.18;2.05;;;1.80;90.80;;;;;;5090572;27;20043;-84
2021/01/27 02:06:23;;;;;;;6.97;3.35;;;1.80;90.80;;;;;;5091724;27;20027;-83
2021/01/27 02:08:53;;;;;;;2.85;1.67;;;1.80;90.80;;;;;;5091598;27;20148;-83
2021/01/27 02:11:22;;;;;;;5.57;3.33;;;1.80;90.70;;;;;;5092408;27;20072;-82
2021/01/27 02:14:11;;;;;;;5.65;3.53;;;1.80;90.70;;;;;;5092947;27;20600;-82
2021/01/27 02:16:43;;;;;;;3.83;2.42;;;1.80;90.90;;;;;;5107265;27;20483;-82
2021/01/27 02:19:15;;;;;;;6.05;2.90;;;1.80;90.80;;;;;;5105133;27;20031;-81
2021/01/27 02:22:00;;;;;;;3.67;1.88;;;1.80;91.00;;;;;;5108672;27;20114;-82
2021/01/27 02:24:40;;;;;;;4.85;2.33;;;1.80;91.10;;;;;;5110609;27;20027;-83
2021/01/27 02:27:11;;;;;;;8.20;3.10;;;1.80;91.20;;;;;;5107781;27;20110;-82
2021/01/27 02:29:45;;;;;;;3.70;2.22;;;1.80;91.00;;;;;;5089893;27;20031;-82
2021/01/27 02:32:30;;;;;;;8.02;4.28;;;1.80;91.10;;;;;;5107195;27;20032;-81
2021/01/27 02:35:06;;;;;;;6.22;3.25;;;1.80;90.70;;;;;;5083735;28;20055;-81
2021/01/27 02:37:46;;;;;;;6.10;2.83;;;1.80;90.80;;;;;;5061067;28;20035;-83
2021/01/27 02:40:24;;;;;;;2.53;2.10;;;1.80;90.70;;;;;;5089268;27;20031;-82
2021/01/27 02:43:25;;;;;;;7.55;3.75;;;1.80;91.00;;;;;;5090897;27;20044;-83
2021/01/27 02:46:37;;;;;;;6.63;3.55;;;1.80;90.90;;;;;;5110947;27;20479;-82
2021/01/27 02:49:05;;;;;;;3.42;2.03;;;1.80;91.30;;;;;;5114601;27;20110;-83
2021/01/27 02:51:57;;;;;;;3.92;2.10;;;1.80;91.10;;;;;;5104572;28;20518;-83
2021/01/27 02:54:24;;;;;;;1.55;1.15;;;1.80;91.00;;;;;;5089251;27;20038;-83
2021/01/27 02:57:01;;;;;;;5.90;3.40;;;1.80;91.20;;;;;;5076156;27;20073;-82
2021/01/27 02:59:34;;;;;;;2.67;2.00;;;1.80;91.20;;;;;;5089003;27;20027;-82
2021/01/27 03:02:08;;;;;;;2.88;2.20;;;1.80;91.50;;;;;;5105106;27;20039;-82
2021/01/27 03:04:40;;;;;;;6.18;2.97;;;1.80;91.50;;;;;;5086009;27;20046;-83
2021/01/27 03:07:06;;;;;;;2.58;1.80;;;1.80;91.40;;;;;;5104626;27;20432;-82
2021/01/27 03:09:37;;;;;;;6.50;3.50;;;1.80;91.30;;;;;;5094749;27;20031;-82
2021/01/27 03:12:03;;;;;;;7.30;1.90;;;1.80;91.40;;;;;;5123891;27;20089;-82
2021/01/27 03:14:29;;;;;;;5.80;2.83;;;1.80;91.40;;;;;;5101209;27;20101;-82
2021/01/27 03:17:01;;;;;;;1.67;1.13;;;1.70;91.70;;;;;;5091483;27;20500;-82
2021/01/27 03:19:39;;;;;;;4.43;2.50;;;1.70;91.70;;;;;;5091434;27;20494;-82
2021/01/27 03:22:17;;;;;;;2.67;1.50;;;1.70;91.90;;;;;;5100171;27;20039;-83
2021/01/27 03:24:49;;;;;;;4.43;1.58;;;1.70;92.00;;;;;;5073725;27;20040;-82
2021/01/27 03:27:21;;;;;;;3.75;1.90;;;1.70;91.80;;;;;;5090842;27;20041;-83
2021/01/27 03:29:47;;;;;;;3.95;2.13;;;1.70;91.80;;;;;;5090135;27;20422;-83
2021/01/27 03:32:48;;;;;;;4.60;2.63;;;1.70;91.90;;;;;;5103021;27;20031;-84
2021/01/27 03:35:29;;;;;;;4.63;2.80;;;1.60;92.00;;;;;;5075828;27;20058;-80
2021/01/27 03:37:56;;;;;;;4.88;2.65;;;1.70;92.10;;;;;;5076147;27;20493;-79
2021/01/27 03:40:21;;;;;;;3.83;1.98;;;1.70;92.20;;;;;;5081476;27;20036;-79
2021/01/27 03:42:56;;;;;;;4.40;1.52;;;1.70;92.20;;;;;;5089513;27;20019;-80
2021/01/27 03:45:21;;;;;;;3.40;1.90;;;1.60;92.20;;;;;;5106490;27;20065;-79
2021/01/27 03:47:51;;;;;;;5.88;2.40;;;1.70;92.20;;;;;;5090043;27;20496;-79
2021/01/27 03:50:20;;;;;;;6.18;2.80;;;1.70;92.20;;;;;;5086967;27;20173;-79
2021/01/27 03:52:52;;;;;;;6.03;2.20;;;1.70;92.30;;;;;;5086281;27;20057;-80
2021/01/27 03:55:23;;;;;;;2.42;1.45;;;1.70;92.40;;;;;;5077571;27;20443;-78
2021/01/27 03:57:56;;;;;;;2.45;1.33;;;1.70;92.30;;;;;;5106658;27;20023;-79
2021/01/27 04:00:22;;;;;;;3.53;1.65;;;1.70;92.40;;;;;;5072395;27;20035;-78
2021/01/27 04:03:09;;;;;;;2.33;1.10;;;1.70;92.40;;;;;;5091345;27;20422;-78
2021/01/27 04:05:34;;;;;;;3.97;1.85;;;1.70;92.50;;;;;;5086696;28;20024;-79
2021/01/27 04:08:00;;;;;;;4.75;2.17;;;1.70;92.60;;;;;;5074562;27;20110;-78
2021/01/27 04:10:26;;;;;;;2.53;1.52;;;1.70;92.50;;;;;;5087013;27;20031;-79
2021/01/27 04:12:51;;;;;;;4.32;1.52;;;1.80;92.40;;;;;;5088904;28;20522;-79
2021/01/27 04:15:17;;;;;;;3.22;1.95;;;1.70;92.40;;;;;;5088152;27;20410;-79
2021/01/27 04:17:43;;;;;;;1.85;1.35;;;1.70;92.60;;;;;;5108198;28;20036;-79
2021/01/27 04:20:09;;;;;;;3.38;2.00;;;1.70;92.60;;;;;;5106822;28;20039;-79
2021/01/27 04:22:34;;;;;;;3.40;1.75;;;1.70;92.60;;;;;;5090287;28;20039;-80
2021/01/27 04:25:00;;;;;;;4.75;1.95;;;1.70;92.70;;;;;;5089676;28;20020;-80
2021/01/27 04:27:26;;;;;;;2.78;1.08;;;1.70;92.80;;;;;;5088087;28;20046;-80
2021/01/27 04:29:51;;;;;;;2.67;1.45;;;1.70;92.90;;;;;;5074400;28;20019;-79
2021/01/27 04:32:17;;;;;;;1.73;1.33;;;1.70;92.80;;;;;;5090577;28;20043;-79
2021/01/27 04:34:42;;;;;;;3.78;1.95;;;1.70;92.80;;;;;;5073911;28;20035;-79
2021/01/27 04:37:08;;;;;;;3.55;2.08;;;1.80;92.90;;;;;;5092681;28;20027;-79
2021/01/27 04:39:33;;;;;;;2.10;1.30;;;1.70;92.90;;;;;;5069977;28;20425;-79
2021/01/27 04:41:59;;;;;;;2.78;1.77;;;1.70;93.00;;;;;;5074335;28;20051;-80
2021/01/27 04:44:24;;;;;;;8.75;2.35;;;1.70;93.50;;;;;;5104260;28;20133;-79
2021/01/27 04:47:14;;;;;;;5.28;2.33;;;1.70;93.20;;;;;;5074341;28;20015;-80
2021/01/27 04:49:43;;;;;;;6.60;2.03;;;1.70;93.10;;;;;;5104863;28;20032;-80
2021/01/27 04:52:16;;;;;;;2.58;1.67;;;1.70;93.20;;;;;;5073545;28;20085;-80
2021/01/27 04:55:03;;;;;;;5.63;2.38;;;1.70;93.40;;;;;;5088736;28;20039;-80
2021/01/27 04:57:32;;;;;;;2.78;1.65;;;1.70;93.30;;;;;;5107130;28;20363;-79
2021/01/27 05:00:03;;;;;;;3.00;1.73;;;1.70;93.30;;;;;;5088335;28;20026;-79
2021/01/27 05:03:04;;;;;;;6.50;2.60;;;1.70;93.30;;;;;;5090899;28;20091;-79
2021/01/27 05:05:31;;;;;;;2.97;2.25;;;1.70;93.40;;;;;;5078847;28;20559;-77
2021/01/27 05:08:03;;;;;;;4.47;2.08;;;1.70;93.50;;;;;;5073759;28;20028;-78
2021/01/27 05:11:00;;;;;;;5.10;2.90;;;1.70;93.40;;;;;;5075571;28;20035;-78
2021/01/27 05:13:37;;;;;;;5.90;2.63;;;1.70;93.40;;;;;;5091657;28;20363;-78
2021/01/27 05:16:07;;;;;;;5.40;2.50;;;1.70;93.50;;;;;;5100567;28;20431;-78
2021/01/27 05:18:32;;;;;;;4.78;3.20;;;1.70;93.50;;;;;;5088563;27;20051;-78
2021/01/27 05:20:58;;;;;;;6.07;2.30;;;1.70;93.50;;;;;;5090668;27;20070;-79
2021/01/27 05:23:23;;;;;;;4.93;2.92;;;1.70;93.50;;;;;;5108596;27;20071;-78
2021/01/27 05:26:05;;;;;;;4.35;2.38;;;1.70;93.50;;;;;;5094394;27;20441;-78
2021/01/27 05:28:37;;;;;;;5.38;1.98;;;1.70;93.60;;;;;;5109643;27;20114;-78
2021/01/27 05:31:02;;;;;;;4.43;2.00;;;1.70;93.60;;;;;;5085442;27;20034;-78
2021/01/27 05:33:47;;;;;;;8.73;3.38;;;1.70;93.60;;;;;;5093525;27;20402;-78
2021/01/27 05:36:39;;;;;;;4.47;2.65;;;1.70;93.60;;;;;;5087677;27;20039;-78
2021/01/27 05:39:14;;;;;;;6.00;2.83;;;1.70;93.60;;;;;;5103387;27;20031;-77
2021/01/27 05:41:40;;;;;;;3.43;2.23;;;1.70;93.60;;;;;;5076470;27;20130;-77
2021/01/27 05:44:12;;;;;;;4.45;1.50;;;1.70;93.70;;;;;;5109209;27;20261;-76
2021/01/27 05:46:37;;;;;;;3.17;2.10;;;1.80;93.80;;;;;;5108748;27;20107;-77
2021/01/27 05:49:04;;;;;;;1.95;1.20;;;1.70;93.70;;;;;;5078463;27;20118;-77
2021/01/27 05:51:31;;;;;;;3.97;2.20;;;1.70;93.60;;;;;;5083310;27;20076;-77
2021/01/27 05:53:57;;;;;;;3.13;1.70;;;1.70;93.70;;;;;;5110230;27;20035;-77
2021/01/27 05:56:24;;;;;;;1.77;1.65;;;1.70;93.60;;;;;;5084026;27;20031;-77
2021/01/27 05:58:49;;;;;;;2.53;1.58;;;1.80;93.70;;;;;;5092909;27;20475;-77
2021/01/27 06:01:26;;;;;;;4.20;3.26;;;1.80;93.70;;;;;;4580677;27;10000900;-77
2021/01/27 06:03:54;;;;;;;3.08;1.70;;;1.80;93.80;;;;;;5104932;27;20797;-77
2021/01/27 06:06:19;;;;;;;2.83;1.65;;;1.80;93.80;;;;;;5128577;27;20110;-77
2021/01/27 06:08:52;;;;;;;7.22;2.35;;;1.80;93.80;;;;;;5092474;27;20111;-77
2021/01/27 06:11:18;;;;;;;4.32;2.00;;;1.80;93.90;;;;;;5078028;27;20036;-77
2021/01/27 06:13:44;;;;;;;4.47;1.65;;;1.80;93.90;;;;;;5076462;27;20483;-78
2021/01/27 06:16:19;;;;;;;3.83;1.75;;;1.80;93.90;;;;;;5097439;27;20032;-77
2021/01/27 06:18:45;;;;;;;1.83;1.05;;;1.80;93.90;;;;;;5084887;27;20028;-77
2021/01/27 06:21:36;;;;;;;4.07;2.47;;;1.80;94.00;;;;;;5090615;27;20042;-77
2021/01/27 06:24:10;;;;;;;4.18;1.90;;;1.80;93.90;;;;;;5092634;27;20035;-78
2021/01/27 06:26:42;;;;;;;5.75;2.45;;;1.80;93.90;;;;;;5089133;27;20035;-78
2021/01/27 06:29:27;;;;;;;1.52;0.98;;;1.80;94.00;;;;;;5093625;27;20495;-78
2021/01/27 06:31:55;;;;;;;5.45;2.00;;;1.80;94.10;;;;;;5128968;27;20507;-78
2021/01/27 06:34:28;;;;;;;4.00;2.33;;;1.80;94.10;;;;;;5109620;27;20054;-77
2021/01/27 06:37:24;;;;;;;4.03;1.75;;;1.80;94.20;;;;;;5108994;27;20047;-78
2021/01/27 06:40:08;;;;;;;3.53;2.07;;;1.80;94.20;;;;;;5125777;27;20502;-78
2021/01/27 06:42:48;;;;;;;2.63;1.23;;;1.80;94.20;;;;;;5105157;27;20254;-77
2021/01/27 06:45:18;;;;;;;1.23;1.08;;;1.80;94.20;;;;;;5126982;27;20047;-77
2021/01/27 06:48:01;;;;;;;6.40;2.92;;;1.80;94.40;;;;;;5092839;27;20519;-78
2021/01/27 06:50:54;;;;;;;5.75;2.15;;;1.80;94.40;;;;;;5120705;27;20031;-78
2021/01/27 06:53:56;;;;;;;6.30;2.83;;;1.80;94.40;;;;;;5090094;27;20118;-78
2021/01/27 06:56:31;;;;;;;4.60;3.10;;;1.80;94.50;;;;;;5108837;27;20421;-79
2021/01/27 06:59:18;;;;;;;8.40;3.40;;;1.80;94.40;;;;;;5106950;27;20382;-79
2021/01/27 07:02:15;;;;;;;7.10;4.40;;;1.80;94.50;;;;;;5107754;27;21297;-79
2021/01/27 07:05:02;;;;;;;5.65;3.13;;;1.80;94.50;;;;;;5107239;27;20123;-79
2021/01/27 07:08:02;;;;;;;2.70;2.03;;;1.80;94.50;;;;;;5093552;27;20062;-77
2021/01/27 07:10:57;;;;;;;4.07;2.63;;;1.80;94.50;;;;;;5101138;27;20035;-77
2021/01/27 07:13:41;;;;;;;7.03;4.50;;;1.80;94.50;;;;;;5086193;27;20555;-77
2021/01/27 07:16:31;;;;;;;3.67;2.38;;;1.80;94.50;;;;;;5124709;27;20035;-77
2021/01/27 07:19:27;;;;;;;7.50;5.13;;;1.80;94.50;;;;;;5106458;27;20027;-78
2021/01/27 07:22:18;;;;;;;3.55;2.38;;;1.80;94.60;;;;;;5073906;27;20480;-78
2021/01/27 07:25:05;;;;;;;4.43;3.03;;;1.80;94.80;;;;;;5102331;27;20040;-78
2021/01/27 07:27:32;;;;;;;7.32;3.63;;;1.80;94.90;;;;;;5089999;27;20589;-77
2021/01/27 07:30:06;;;;;;;7.03;3.78;;;1.80;94.90;;;;;;5091844;27;20038;-78
2021/01/27 07:32:52;;;;;;;3.03;1.95;;;1.70;95.10;;;;;;5085556;27;20042;-78
2021/01/27 07:35:21;;;;;;;2.90;1.48;;;1.70;95.10;;;;;;5096141;27;20039;-78
2021/01/27 07:38:16;;;;;;;8.57;3.55;;;1.70;95.10;;;;;;5093718;27;20031;-81
2021/01/27 07:40:49;;;;;;;3.45;2.50;;;1.80;95.10;;;;;;5096585;27;20508;-81
2021/01/27 07:43:23;;;;;;;3.13;2.05;;;1.70;95.10;;;;;;5090970;27;20023;-81
2021/01/27 07:45:53;;;;;;;5.00;3.35;;;1.70;95.20;;;;;;5089076;27;20110;-81
2021/01/27 07:48:28;;;;;;;5.80;3.08;;;1.70;95.20;;;;;;5088423;27;20043;-82
2021/01/27 07:51:08;;;;;;;5.17;2.33;;;1.70;95.20;;;;;;5104157;27;20470;-82
2021/01/27 07:53:55;;;;;;;4.20;1.95;;;1.70;95.20;;;;;;5073166;27;20058;-82
2021/01/27 07:56:27;;;;;;;4.32;2.15;;;1.80;95.30;;;;;;5110434;27;20035;-81
2021/01/27 07:59:11;;;;;;;7.15;3.70;;;1.70;95.30;;;;;;5107007;27;20422;-81
2021/01/27 08:01:42;;;;;;;2.90;1.75;;;1.70;95.40;;;;;;5071551;27;20031;-81
2021/01/27 08:04:32;;;;;;;2.60;1.60;;;1.70;95.40;;;;;;5103040;27;20621;-82
2021/01/27 08:06:58;;;;;;;1.55;0.98;;;1.80;95.40;;;;;;5085603;27;20526;-81
2021/01/27 08:09:31;;;;;;;2.63;1.48;;;1.70;95.50;;;;;;5069131;27;20123;-82
2021/01/27 08:12:18;;;;;;;1.58;1.08;;;1.70;95.60;;;;;;5104580;27;20080;-80
2021/01/27 08:14:56;;;;;;;;;;;1.80;95.70;;;;;;5106991;28;20035;-81
2021/01/27 08:17:46;;;;;;;3.17;2.10;;;1.80;95.70;;;;;;5109179;28;19914;-81
2021/01/27 08:20:42;;;;;;;1.05;0.88;;;1.70;95.80;;;;;;5102494;28;20406;-81
2021/01/27 08:23:10;;;;;;;1.98;1.70;;;1.70;95.90;;;;;;5095424;28;20023;-81
2021/01/27 08:26:05;;;;;;;4.80;4.03;;;1.70;95.90;;;;;;5074326;28;20080;-82
2021/01/27 08:28:36;;;;;;;4.65;2.15;;;1.70;95.90;;;;;;5086448;28;20498;-82
2021/01/27 08:31:12;;;;;;;9.70;3.78;;;1.70;96.00;;;;;;5119781;28;20054;-82
2021/01/27 08:33:46;;;;;;;4.20;2.70;;;1.70;96.00;;;;;;5119191;28;20490;-81
2021/01/27 08:36:15;;;;;;;1.70;1.48;;;1.70;96.20;;;;;;5125884;27;20055;-82
2021/01/27 08:38:56;;;;;;;2.42;1.90;;;1.70;96.20;;;;;;5088577;28;20031;-82
2021/01/27 08:41:42;;;;;;;3.75;1.50;;;1.70;96.20;;;;;;5122789;28;20154;-81
2021/01/27 08:44:28;;;;;;;4.97;2.78;;;1.80;96.20;;;;;;5078953;28;20027;-82
2021/01/27 08:46:59;;;;;;;2.85;1.67;;;1.80;96.20;;;;;;5123144;28;20039;-83
2021/01/27 08:49:37;;;;;;;2.40;2.20;;;1.80;96.30;;;;;;5056141;28;20232;-84
2021/01/27 08:52:29;;;;;;;7.22;3.22;;;1.80;96.30;;;;;;5089685;27;20466;-81
2021/01/27 08:54:55;;;;;;;2.08;1.88;;;1.80;96.40;;;;;;5101843;27;20027;-82
2021/01/27 08:57:31;;;;;;;4.70;3.05;;;1.80;96.40;;;;;;5108816;27;20027;-82
2021/01/27 09:00:18;;;;;;;5.72;3.10;;;1.90;96.40;;;;;;5096669;27;20160;-82
2021/01/27 09:02:59;;;;;;;;;;;1.90;96.60;;;;;;5096039;28;20028;-83
2021/01/27 09:05:25;;;;;;;3.78;2.53;;;1.90;96.50;;;;;;5068902;27;20373;-83
2021/01/27 09:07:55;;;;;;;2.53;1.40;;;1.90;96.60;;;;;;5103575;27;20047;-81
2021/01/27 09:10:40;;;;;;;10.02;2.83;;;1.90;96.50;;;;;;5078698;27;20077;-82
2021/01/27 09:13:33;;;;;;;3.15;2.45;;;2.00;96.60;;;;;;5111203;27;20035;-81
2021/01/27 09:16:04;;;;;;;2.80;1.88;;;2.00;96.50;;;;;;5094330;27;20042;-81
2021/01/27 09:18:30;;;;;;;3.95;2.85;;;2.10;96.50;;;;;;5078748;28;20028;-83
2021/01/27 09:21:17;;;;;;;2.10;1.48;;;2.10;96.40;;;;;;5088494;27;20402;-82
2021/01/27 09:23:43;;;;;;;2.85;2.35;;;2.20;96.40;;;;;;5079675;27;20103;-82
2021/01/27 09:26:20;;;;;;;3.40;1.55;;;2.10;96.50;;;;;;5078343;27;20038;-82
2021/01/27 09:28:45;;;;;;;2.83;1.98;;;2.10;96.50;;;;;;5090289;27;20031;-82
2021/01/27 09:31:19;;;;;;;1.40;1.27;;;2.10;96.60;;;;;;5076785;27;20492;-81
2021/01/27 09:33:45;;;;;;;2.88;1.95;;;2.10;96.50;;;;;;5079889;27;20058;-81
2021/01/27 09:36:18;;;;;;;2.53;2.08;;;2.10;96.60;;;;;;5111137;27;20059;-80
2021/01/27 09:38:44;;;;;;;1.65;1.10;;;2.10;96.60;;;;;;5094056;27;20027;-81
2021/01/27 09:41:12;;;;;;;2.85;2.20;;;2.10;96.60;;;;;;5093265;27;20026;-81
2021/01/27 09:43:40;;;;;;;6.30;1.90;;;2.00;96.60;;;;;;5107512;27;20070;-82
2021/01/27 09:46:30;;;;;;;4.82;3.00;;;2.10;96.70;;;;;;5093149;27;20073;-82
2021/01/27 09:49:06;;;;;;;3.30;1.98;;;2.10;96.70;;;;;;5094094;27;20031;-80
2021/01/27 09:51:32;;;;;;;3.90;2.17;;;2.10;96.70;;;;;;5107526;27;20032;-82
2021/01/27 09:53:59;;;;;;;2.30;1.98;;;2.10;96.80;;;;;;5095536;27;20382;-82
2021/01/27 09:56:25;;;;;;;3.65;2.50;;;2.10;96.60;;;;;;5088305;27;20105;-81
2021/01/27 09:58:51;;;;;;;3.55;2.25;;;2.10;96.60;;;;;;5089883;27;20114;-80
2021/01/27 10:01:25;;;;;;;2.70;1.73;;;2.10;96.70;;;;;;5098445;27;20035;-81
2021/01/27 10:03:54;;;;;;;2.53;1.90;;;2.20;96.80;;;;;;5075015;28;20179;-81
2021/01/27 10:06:37;;;;;;;5.75;2.67;;;2.20;97.10;;;;;;5090880;27;20038;-82
2021/01/27 10:09:23;;;;;;;1.33;1.20;;;2.20;97.00;;;;;;5107095;27;20047;-79
2021/01/27 10:12:00;;;;;;;2.43;2.03;;;2.20;96.90;;;;;;5102978;27;20126;-82
2021/01/27 10:14:28;;;;;;;4.03;3.03;;;2.20;97.00;;;;;;5094356;27;20263;-82
2021/01/27 10:16:57;;;;;;;3.05;1.98;;;2.20;97.00;;;;;;5109291;27;20544;-81
2021/01/27 10:19:25;;;;;;;6.22;3.50;;;2.30;97.20;;;;;;5090583;27;20038;-82
2021/01/27 10:21:52;;;;;;;4.53;2.28;;;2.30;97.30;;;;;;5090026;27;20039;-82
2021/01/27 10:24:51;;;;;;;5.00;3.25;;;2.40;97.30;;;;;;5072827;27;20036;-81
2021/01/27 10:27:17;;;;;;;4.93;2.78;;;2.30;97.20;;;;;;5100108;27;21529;-81
2021/01/27 10:29:42;;;;;;;1.63;1.02;;;2.40;97.20;;;;;;5092069;27;20475;-81
2021/01/27 10:32:33;;;;;;;4.75;2.67;;;2.40;97.30;;;;;;5087305;27;20091;-82
2021/01/27 10:34:58;;;;;;;4.05;2.58;;;2.40;97.30;;;;;;5090631;27;20634;-82
2021/01/27 10:37:37;;;;;;;2.10;1.48;;;2.50;97.50;;;;;;5080988;27;20126;-82
2021/01/27 10:40:32;;;;;;;5.00;3.00;;;2.50;97.30;;;;;;5099837;27;20502;-81
2021/01/27 10:43:24;;;;;;;5.97;3.78;;;2.60;97.20;;;;;;5086198;27;20023;-81
2021/01/27 10:45:49;;;;;;;2.20;1.98;;;2.60;97.50;;;;;;5107612;27;20453;-81
2021/01/27 10:48:21;;;;;;;1.60;1.50;;;2.60;97.30;;;;;;5088366;27;20024;-81
2021/01/27 10:50:51;;;;;;;3.03;2.33;;;2.60;97.40;;;;;;5125598;27;20027;-81
2021/01/27 10:53:17;;;;;;;1.73;1.00;;;2.50;97.40;;;;;;5080479;27;20038;-81
2021/01/27 10:55:52;;;;;;;1.95;1.42;;;2.60;97.50;;;;;;5094373;27;20033;-82
2021/01/27 10:58:17;;;;;;;2.25;1.83;;;2.60;97.50;;;;;;5094375;27;20521;-79
2021/01/27 11:00:43;;;;;;;2.75;1.83;;;2.60;97.50;;;;;;5094997;27;20031;-78
2021/01/27 11:03:09;;;;;;;2.78;2.10;;;2.70;97.60;;;;;;5103319;27;20027;-79
2021/01/27 11:05:35;;;;;;;3.13;1.80;;;2.70;97.50;;;;;;5092276;27;20106;-79
2021/01/27 11:08:01;;;;;;;4.20;2.50;;;2.70;97.60;;;;;;5085817;27;20031;-78
2021/01/27 11:10:27;;;;;;;1.88;1.55;;;2.70;97.60;;;;;;5082358;27;20024;-78
2021/01/27 11:12:52;;;;;;;6.22;4.15;;;2.70;97.60;;;;;;5086583;27;20089;-78
2021/01/27 11:15:18;;;;;;;1.20;1.10;;;2.80;97.60;;;;;;5090107;27;20573;-78
2021/01/27 11:17:44;;;;;;;4.05;1.98;;;2.70;97.50;;;;;;5090828;27;20378;-78
2021/01/27 11:20:10;;;;;;;5.40;3.28;;;2.80;97.50;;;;;;5075705;27;20031;-79
2021/01/27 11:22:35;;;;;;;2.15;1.50;;;2.80;97.60;;;;;;5090542;27;20031;-78
2021/01/27 11:25:01;;;;;;;2.55;1.45;;;2.80;97.50;;;;;;5103023;27;20148;-78
2021/01/27 11:27:26;;;;;;;3.13;2.15;;;2.80;97.60;;;;;;5087645;27;20039;-78
2021/01/27 11:29:52;;;;;;;2.58;1.75;;;2.80;97.70;;;;;;5107696;27;20031;-79
2021/01/27 11:32:17;;;;;;;4.35;2.70;;;2.90;97.70;;;;;;5093575;27;20122;-78
2021/01/27 11:34:43;;;;;;;2.63;1.42;;;2.90;97.70;;;;;;5090448;27;20030;-78
2021/01/27 11:37:09;;;;;;;1.48;0.93;;;2.90;97.60;;;;;;5106930;27;20038;-78
2021/01/27 11:39:35;;;;;;;1.40;1.02;;;2.90;97.70;;;;;;5076464;27;20415;-78
2021/01/27 11:42:00;;;;;;;2.08;1.75;;;2.90;97.60;;;;;;5087492;27;20106;-80
2021/01/27 11:44:26;;;;;;;4.65;2.95;;;2.90;97.70;;;;;;5085597;27;20027;-79
2021/01/27 11:46:51;;;;;;;3.75;2.50;;;3.00;97.70;;;;;;5087911;27;20111;-78
2021/01/27 11:49:17;;;;;;;1.17;0.98;;;3.00;97.60;;;;;;5105945;27;20057;-79
2021/01/27 11:51:42;;;;;;;3.40;2.25;;;3.00;97.60;;;;;;5108528;27;20046;-78
2021/01/27 11:54:08;;;;;;;5.28;3.95;;;3.10;97.70;;;;;;5107236;28;20072;-78
2021/01/27 11:56:34;;;;;;;2.53;1.38;;;3.10;97.70;;;;;;5073844;27;20035;-78
2021/01/27 11:58:59;;;;;;;3.63;3.00;;;3.20;97.70;;;;;;5074959;27;20055;-81
2021/01/27 12:01:28;;;;;;;2.78;1.67;;;3.20;97.60;;;;;;5100986;27;20062;-78
2021/01/27 12:03:54;;;;;;;3.08;2.67;;;3.20;97.80;;;;;;5072715;27;20122;-78
2021/01/27 12:06:20;;;;;;;4.47;3.40;;;3.30;97.70;;;;;;5090312;28;20429;-78
2021/01/27 12:08:45;;;;;;;3.67;2.75;;;3.30;97.80;;;;;;5107447;27;20076;-79
2021/01/27 12:11:11;;;;;;;4.15;2.63;;;3.30;97.70;;;;;;5087373;28;20113;-79
2021/01/27 12:13:36;;;;;;;1.77;0.93;;;3.30;97.80;;;;;;5079876;27;20552;-79
2021/01/27 12:16:02;;;;;;;4.50;2.40;;;3.30;97.50;;;;;;5073907;27;20031;-79
2021/01/27 12:18:27;;;;;;;3.80;1.80;;;3.30;97.60;;;;;;5088091;28;20030;-78
2021/01/27 12:20:53;;;;;;;1.25;1.10;;;3.30;97.60;;;;;;5107300;28;20031;-79
2021/01/27 12:23:19;;;;;;;2.88;1.75;;;3.30;97.80;;;;;;5105885;28;20085;-78
2021/01/27 12:25:45;;;;;;;3.15;1.90;;;3.40;97.70;;;;;;5086695;28;20038;-78
2021/01/27 12:28:11;;;;;;;4.60;2.80;;;3.30;97.60;;;;;;5076887;27;20134;-80
2021/01/27 12:30:37;;;;;;;3.40;2.03;;;3.30;97.70;;;;;;5096254;27;20031;-78
2021/01/27 12:33:02;;;;;;;4.50;2.60;;;3.20;97.80;;;;;;5090754;27;20035;-78
2021/01/27 12:35:28;;;;;;;5.15;0.85;;;3.20;97.80;;;;;;5085163;27;20031;-78
2021/01/27 12:37:53;;;;;;;4.78;2.53;;;3.20;97.70;;;;;;5093273;27;20117;-78
2021/01/27 12:40:19;;;;;;;2.58;2.20;;;3.20;97.60;;;;;;5092915;27;20038;-79
2021/01/27 12:42:45;;;;;;;1.80;1.50;;;3.20;97.80;;;;;;5078889;27;20051;-78
2021/01/27 12:45:12;;;;;;;2.63;1.60;;;3.20;97.80;;;;;;5091026;27;20073;-79
2021/01/27 12:47:37;;;;;;;0.30;0.28;;;3.20;97.90;;;;;;5093362;27;20039;-80
2021/01/27 12:50:04;;;;;;;2.50;1.85;;;3.10;97.90;;;;;;5079821;28;20047;-78
2021/01/27 12:52:30;;;;;;;3.60;2.70;;;3.20;98.00;;;;;;5091625;27;20031;-78
2021/01/27 12:54:55;;;;;;;2.00;1.77;;;3.10;98.00;;;;;;5093339;27;20536;-79
2021/01/27 12:57:21;;;;;;;4.32;2.80;;;3.20;98.00;;;;;;5094875;27;20039;-78
2021/01/27 12:59:46;;;;;;;3.95;3.53;;;3.20;98.00;;;;;;5111357;27;20042;-78
2021/01/27 13:02:12;;;;;;;6.70;3.92;;;3.20;98.10;;;;;;5022471;27;20030;-78
2021/01/27 13:04:37;;;;;;;3.08;2.60;;;3.20;98.00;;;;;;5077087;28;20028;-78
2021/01/27 13:07:04;;;;;;;1.27;1.17;;;3.20;98.10;;;;;;5072679;27;20240;-78
2021/01/27 13:09:30;;;;;;;4.65;3.33;;;3.20;98.10;;;;;;5101700;27;20073;-78
2021/01/27 13:11:55;;;;;;;5.45;3.67;;;3.20;98.20;;;;;;5086120;28;20032;-77
2021/01/27 13:14:21;;;;;;;7.22;4.05;;;3.20;98.20;;;;;;5074083;28;20128;-78
2021/01/27 13:16:47;;;;;;;4.03;2.55;;;3.20;98.10;;;;;;5075785;28;20047;-78
2021/01/27 13:19:13;;;;;;;5.43;3.40;;;3.20;98.10;;;;;;5091991;27;20491;-79
2021/01/27 13:21:38;;;;;;;3.60;3.05;;;3.20;98.10;;;;;;5093696;27;20046;-78
2021/01/27 13:24:04;;;;;;;2.22;1.95;;;3.30;98.20;;;;;;5079663;27;20038;-78